createdAt,value
2023-02-14T00:09:40.664Z,91.7
2023-02-14T00:25:14.979Z,92.3
2023-02-14T00:40:49.300Z,91.8
2023-02-14T00:56:23.702Z,92.9
2023-02-14T01:11:58.040Z,92.2
2023-02-14T01:27:32.478Z,92.2
2023-02-14T01:43:06.913Z,90.9
2023-02-14T01:58:41.219Z,91.3
2023-02-14T02:14:16.142Z,89.5
2023-02-14T02:29:50.698Z,90.8
2023-02-14T02:45:25.027Z,91.2
2023-02-14T03:01:00.522Z,93.2
2023-02-14T03:16:35.736Z,91.2
2023-02-14T03:32:11.093Z,91.5
2023-02-14T03:47:45.718Z,91.6
2023-02-14T04:03:20.147Z,90.9
2023-02-14T04:18:54.594Z,91.2
2023-02-14T04:34:28.896Z,89.7
2023-02-14T04:50:03.209Z,90.9
2023-02-14T05:05:37.576Z,91.7
2023-02-14T05:21:11.898Z,91.8
2023-02-14T05:36:46.303Z,91.5
2023-02-14T05:52:20.748Z,90.9
2023-02-14T06:07:55.218Z,90.1
2023-02-14T06:23:29.529Z,89.6
2023-02-14T06:39:03.849Z,91.8
2023-02-14T06:54:38.179Z,88.3
2023-02-14T07:10:12.504Z,85.8
2023-02-14T07:25:46.791Z,86.9
2023-02-14T07:41:21.103Z,89.6
2023-02-14T07:56:55.416Z,88.2
2023-02-14T08:12:29.689Z,86.6
2023-02-14T08:28:04.080Z,86.5
2023-02-14T08:43:38.598Z,86.3
2023-02-14T08:59:12.999Z,84.3
2023-02-14T09:14:47.697Z,84.3
2023-02-14T09:30:22.431Z,84.7
2023-02-14T09:45:57.223Z,82.7
2023-02-14T10:01:32.024Z,88.2
2023-02-14T10:17:06.543Z,83
2023-02-14T10:32:41.089Z,81.9
2023-02-14T10:48:15.571Z,86
2023-02-14T11:03:50.172Z,84.8
2023-02-14T11:19:24.729Z,83.5
2023-02-14T11:34:59.125Z,81.5
2023-02-14T11:50:33.487Z,80.4
2023-02-14T12:06:07.874Z,76.9
2023-02-14T12:21:42.419Z,74.7
2023-02-14T12:37:16.892Z,77.1
2023-02-14T12:52:51.318Z,72.2
2023-02-14T13:08:26.599Z,72.2
2023-02-14T13:24:01.016Z,69.8
2023-02-14T13:39:41.933Z,69.2
2023-02-14T13:55:17.576Z,67.6
2023-02-14T14:10:52.087Z,66.4
2023-02-14T14:26:27.109Z,66.8
2023-02-14T14:42:01.668Z,66.4
2023-02-14T14:57:36.116Z,66.9
2023-02-14T15:13:10.571Z,68.2
2023-02-14T15:28:45.030Z,71
2023-02-14T15:44:20.776Z,73
2023-02-14T15:59:55.227Z,74.5
2023-02-14T16:15:29.931Z,76.2
2023-02-14T16:31:06.242Z,79
2023-02-14T16:46:43.772Z,80.4
2023-02-14T17:02:18.351Z,82.3
2023-02-14T17:17:52.974Z,83.5
2023-02-14T17:33:27.358Z,83.9
2023-02-14T17:49:02.762Z,84.4
2023-02-14T18:04:37.179Z,86.9
2023-02-14T18:20:11.571Z,88.3
2023-02-14T18:35:45.945Z,88.6
2023-02-14T18:51:20.335Z,88.5
2023-02-14T19:06:54.779Z,88.3
2023-02-14T19:22:29.355Z,88.9
2023-02-14T19:38:03.703Z,89.3
2023-02-14T19:53:38.120Z,89.7
2023-02-14T20:09:14.456Z,91
2023-02-14T20:24:48.816Z,89.4
2023-02-14T20:40:23.163Z,89.6
2023-02-14T20:55:57.504Z,93.2
2023-02-14T21:11:31.857Z,93.2
2023-02-14T21:27:06.225Z,92.3
2023-02-14T21:42:40.545Z,92.5
2023-02-14T21:58:14.850Z,93.3
2023-02-14T22:13:49.229Z,93.5
2023-02-14T22:29:23.730Z,92.7
2023-02-14T22:44:58.084Z,95.2
2023-02-14T23:00:32.434Z,92
2023-02-14T23:16:06.881Z,92.3
2023-02-14T23:31:41.788Z,90.9
2023-02-14T23:47:16.286Z,89
